Time;durP1;ratioP1;P1;durP2;ratioP2;P2;SDS_P1;SDS_P2;PMS_P1;PMS_P2;Temp;Humidity;BMP_temperature;BMP_pressure;BME280_temperature;BME280_humidity;BME280_pressure;Samples;Min_cycle;Max_cycle;Signal;HPM_P1;HPM_P2
2023/11/28 00:03:43;;;;;;;;;14.50;12.75;;;;;24.91;20.58;100439.25;245660;1182;74182;-63
2023/11/28 00:08:46;;;;;;;;;11.75;11.75;;;;;24.91;20.64;100435.48;245680;1182;72434;-64
2023/11/28 00:13:50;;;;;;;;;12.50;12.50;;;;;24.92;20.45;100427.40;245675;1177;74101;-64
2023/11/28 00:18:53;;;;;;;;;11.75;11.25;;;;;24.93;20.42;100420.52;245640;1183;73382;-64
2023/11/28 00:23:57;;;;;;;;;12.00;12.00;;;;;24.93;20.48;100422.45;245672;1177;72550;-64
2023/11/28 00:29:01;;;;;;;;;14.25;14.25;;;;;24.93;20.59;100430.33;245636;1182;73400;-64
2023/11/28 00:34:04;;;;;;;;;10.25;10.25;;;;;24.94;20.37;100434.06;245642;1181;73346;-64
2023/11/28 00:39:07;;;;;;;;;12.25;12.25;;;;;24.94;20.55;100431.48;245657;1177;58327;-65
2023/11/28 00:44:10;;;;;;;;;10.00;10.00;;;;;24.93;20.61;100426.45;245603;1181;58339;-64
2023/11/28 00:49:13;;;;;;;;;11.75;11.75;;;;;24.93;20.55;100425.14;245582;1181;73094;-63
2023/11/28 00:54:17;;;;;;;;;11.00;11.00;;;;;24.94;20.53;100419.07;245602;1177;58353;-65
2023/11/28 00:59:20;;;;;;;;;13.00;13.00;;;;;24.94;20.31;100418.52;245633;1181;74026;-63
2023/11/28 01:04:23;;;;;;;;;10.75;10.75;;;;;24.95;20.41;100416.02;245611;1177;58317;-65
2023/11/28 01:09:26;;;;;;;;;11.00;11.00;;;;;24.95;20.62;100407.22;245612;1183;72512;-64
2023/11/28 01:14:31;;;;;;;;;14.00;12.75;;;;;24.95;20.35;100401.42;245614;1177;58321;-64
2023/11/28 01:19:34;;;;;;;;;11.75;11.75;;;;;24.94;20.26;100394.52;245671;1181;72886;-64
2023/11/28 01:24:39;;;;;;;;;11.00;11.00;;;;;24.93;20.24;100398.93;245638;1177;73571;-63
2023/11/28 01:29:42;;;;;;;;;11.00;11.00;;;;;24.92;20.18;100396.51;245588;1183;74114;-64
2023/11/28 01:34:45;;;;;;;;;13.75;12.75;;;;;24.94;20.45;100384.60;245580;1179;58296;-63
2023/11/28 01:39:49;;;;;;;;;11.00;11.00;;;;;24.94;20.24;100388.01;245650;1177;58353;-64
2023/11/28 01:44:52;;;;;;;;;12.50;12.25;;;;;24.94;20.18;100394.63;245608;1177;73519;-64
2023/11/28 01:49:55;;;;;;;;;10.25;10.25;;;;;24.94;20.16;100391.34;245614;1177;58341;-64
2023/11/28 01:55:00;;;;;;;;;11.50;11.00;;;;;24.94;20.26;100388.34;245564;1179;58357;-65
2023/11/28 02:00:04;;;;;;;;;10.67;10.33;;;;;24.92;20.15;100380.63;245600;1177;72988;-64
2023/11/28 02:05:08;;;;;;;;;10.00;10.00;;;;;24.93;20.31;100390.42;245590;1180;73403;-64
2023/11/28 02:10:11;;;;;;;;;10.75;10.75;;;;;24.93;20.14;100378.56;245644;1182;73404;-64
2023/11/28 02:15:14;;;;;;;;;11.00;11.00;;;;;24.92;20.08;100369.14;245689;1181;73284;-64
2023/11/28 02:20:17;;;;;;;;;10.75;10.00;;;;;24.93;20.08;100361.55;245699;1181;58411;-64
2023/11/28 02:25:20;;;;;;;;;10.00;10.00;;;;;24.93;20.17;100362.48;245692;1177;58370;-63
2023/11/28 02:30:23;;;;;;;;;11.75;11.75;;;;;24.92;19.96;100364.38;245698;1177;58348;-65
2023/11/28 02:35:26;;;;;;;;;9.33;9.33;;;;;24.93;20.07;100359.96;245678;1182;58346;-64
2023/11/28 02:40:29;;;;;;;;;9.33;9.00;;;;;24.93;20.08;100358.27;245662;1179;58263;-64
2023/11/28 02:45:32;;;;;;;;;10.00;10.00;;;;;24.92;20.02;100370.16;245675;1177;58376;-65
2023/11/28 02:50:37;;;;;;;;;11.67;10.00;;;;;24.91;20.10;100356.86;245676;1183;58348;-65
2023/11/28 02:55:40;;;;;;;;;10.25;10.00;;;;;24.92;20.22;100349.66;245592;1190;73936;-64
2023/11/28 03:00:43;;;;;;;;;11.25;10.00;;;;;24.93;20.17;100348.68;245667;1183;73417;-65
2023/11/28 03:05:47;;;;;;;;;9.33;9.33;;;;;24.93;19.93;100343.16;245675;1177;73755;-65
2023/11/28 03:10:50;;;;;;;;;8.67;8.67;;;;;24.93;19.97;100335.67;245617;1177;58330;-65
2023/11/28 03:15:53;;;;;;;;;12.25;11.00;;;;;24.94;20.12;100324.59;245684;1177;58407;-64
2023/11/28 03:20:56;;;;;;;;;10.25;10.00;;;;;24.95;20.20;100313.82;245693;1182;71739;-64
2023/11/28 03:25:59;;;;;;;;;9.33;9.00;;;;;24.96;19.99;100313.45;245686;1181;58324;-64
2023/11/28 03:31:02;;;;;;;;;10.00;10.00;;;;;24.98;20.04;100316.33;245664;1183;58357;-65
2023/11/28 03:36:06;;;;;;;;;10.00;10.00;;;;;24.99;20.20;100312.80;245670;1183;72817;-64
2023/11/28 03:41:09;;;;;;;;;10.75;10.75;;;;;24.99;19.98;100314.71;245675;1184;73417;-65
2023/11/28 03:46:14;;;;;;;;;11.00;11.00;;;;;24.99;20.22;100302.29;245685;1182;74617;-64
2023/11/28 03:51:20;;;;;;;;;8.00;8.00;;;;;24.99;20.02;100299.34;245666;1182;58643;-64
2023/11/28 03:56:25;;;;;;;;;10.75;9.00;;;;;24.99;19.96;100290.76;245630;1182;73275;-64
2023/11/28 04:01:28;;;;;;;;;8.75;8.75;;;;;24.97;20.09;100291.25;245686;1184;73669;-65
2023/11/28 04:06:31;;;;;;;;;9.25;9.25;;;;;24.97;20.11;100288.46;245698;1183;72590;-65
2023/11/28 04:11:35;;;;;;;;;10.75;10.75;;;;;24.99;19.84;100282.15;245711;1177;58453;-64
2023/11/28 04:16:38;;;;;;;;;9.00;9.00;;;;;25.00;19.98;100279.92;245684;1177;74607;-63
2023/11/28 04:21:42;;;;;;;;;11.00;11.00;;;;;25.00;19.97;100282.44;245687;1178;58319;-64
2023/11/28 04:26:45;;;;;;;;;9.00;9.00;;;;;25.01;20.04;100271.23;245622;1182;73441;-64
2023/11/28 04:31:48;;;;;;;;;9.00;9.00;;;;;25.01;20.07;100263.41;245675;1177;58354;-64
2023/11/28 04:36:52;;;;;;;;;7.00;7.00;;;;;25.01;20.01;100266.64;245688;1183;58326;-63
2023/11/28 04:41:55;;;;;;;;;9.00;9.00;;;;;25.02;19.76;100256.48;245665;1183;73624;-62
2023/11/28 04:46:58;;;;;;;;;10.00;10.00;;;;;25.01;20.04;100255.05;245633;1177;58357;-64
2023/11/28 04:52:01;;;;;;;;;8.25;8.25;;;;;25.01;19.90;100245.84;245574;1183;72067;-64
2023/11/28 04:57:05;;;;;;;;;8.00;8.00;;;;;25.01;19.96;100241.23;245581;1177;58322;-64
2023/11/28 05:02:08;;;;;;;;;9.00;8.50;;;;;25.04;19.95;100236.59;245586;1181;72907;-64
2023/11/28 05:07:13;;;;;;;;;11.00;9.75;;;;;25.08;19.59;100233.06;245560;1179;73270;-63
2023/11/28 05:12:17;;;;;;;;;11.50;10.25;;;;;25.15;19.61;100227.06;245556;1180;72882;-64
2023/11/28 05:17:20;;;;;;;;;8.50;8.50;;;;;25.21;19.60;100219.50;245534;1177;73238;-64
2023/11/28 05:22:23;;;;;;;;;9.75;9.75;;;;;25.26;19.65;100223.63;245526;1181;58330;-64
2023/11/28 05:27:26;;;;;;;;;9.25;9.25;;;;;25.31;19.76;100224.35;245508;1190;73733;-63
2023/11/28 05:32:29;;;;;;;;;8.00;8.00;;;;;25.34;19.84;100221.55;245517;1183;58371;-63
2023/11/28 05:37:33;;;;;;;;;11.00;9.75;;;;;25.36;20.10;100221.36;245388;1182;73317;-64
2023/11/28 05:42:36;;;;;;;;;8.00;8.00;;;;;25.40;20.38;100211.64;245467;1177;58359;-63
2023/11/28 05:47:39;;;;;;;;;10.25;8.75;;;;;25.44;21.01;100206.58;245423;1177;73020;-64
2023/11/28 05:52:43;;;;;;;;;8.25;8.00;;;;;25.47;22.37;100211.39;245253;1177;74173;-61
2023/11/28 05:57:47;;;;;;;;;8.00;7.75;;;;;25.58;23.99;100204.41;245369;1181;73562;-60
2023/11/28 06:02:50;;;;;;;;;7.75;7.25;;;;;25.81;25.78;100192.85;245161;1182;73709;-59
2023/11/28 06:07:53;;;;;;;;;7.75;7.75;;;;;26.10;27.12;100181.46;245074;1177;73297;-65
2023/11/28 06:12:56;;;;;;;;;10.00;8.00;;;;;26.33;27.68;100176.34;245304;1186;59947;-63
2023/11/28 06:17:59;;;;;;;;;13.00;10.00;;;;;26.49;27.87;100180.80;245440;1177;58562;-59
2023/11/28 06:23:03;;;;;;;;;8.00;8.00;;;;;26.44;27.88;100169.94;245440;1181;74291;-60
2023/11/28 06:28:07;;;;;;;;;9.00;7.00;;;;;26.41;27.75;100164.74;245417;1178;72310;-60
2023/11/28 06:33:10;;;;;;;;;9.00;9.00;;;;;26.44;27.12;100155.25;245292;1183;74099;-61
2023/11/28 06:38:13;;;;;;;;;8.75;8.00;;;;;26.44;26.78;100150.77;245347;1177;58440;-62
2023/11/28 06:43:16;;;;;;;;;11.00;9.00;;;;;26.50;26.73;100148.51;245373;1177;58372;-59
2023/11/28 06:48:19;;;;;;;;;10.00;10.00;;;;;26.61;26.15;100151.08;245426;1177;74328;-60
2023/11/28 06:53:22;;;;;;;;;6.00;6.00;;;;;26.68;26.04;100146.58;245309;1183;73541;-58
2023/11/28 06:58:26;;;;;;;;;8.00;8.00;;;;;26.80;25.82;100138.11;245288;1177;72748;-56
2023/11/28 07:03:31;;;;;;;;;7.50;7.50;;;;;26.75;24.88;100126.39;245216;1182;58662;-59
2023/11/28 07:08:35;;;;;;;;;10.33;9.67;;;;;26.43;22.53;100118.70;245345;1177;73198;-59
2023/11/28 07:13:38;;;;;;;;;9.50;8.50;;;;;26.35;22.71;100119.83;245394;1177;74110;-58
2023/11/28 07:18:42;;;;;;;;;7.00;7.00;;;;;26.36;22.34;100113.09;245407;1177;58390;-58
2023/11/28 07:23:45;;;;;;;;;9.00;7.00;;;;;26.37;21.79;100098.35;245307;1181;72939;-59
2023/11/28 07:28:48;;;;;;;;;7.00;7.00;;;;;26.38;21.72;100085.64;245346;1177;73664;-58
2023/11/28 07:33:51;;;;;;;;;9.00;8.75;;;;;26.44;21.47;100083.08;245378;1183;72491;-58
2023/11/28 07:38:54;;;;;;;;;7.75;7.75;;;;;26.49;21.36;100078.23;245326;1177;58408;-59
2023/11/28 07:43:58;;;;;;;;;8.00;8.00;;;;;26.52;21.32;100070.14;245405;1181;58510;-58
2023/11/28 07:49:02;;;;;;;;;7.00;7.00;;;;;26.56;21.02;100069.39;245337;1177;73660;-59
2023/11/28 07:54:06;;;;;;;;;6.00;6.00;;;;;26.59;20.92;100069.10;245277;1178;73601;-58
2023/11/28 07:59:09;;;;;;;;;12.00;10.00;;;;;26.62;20.70;100064.13;245414;1177;73654;-57
2023/11/28 08:04:13;;;;;;;;;9.00;9.00;;;;;26.61;21.76;100058.70;245376;1177;73298;-57
2023/11/28 08:09:16;;;;;;;;;9.25;9.00;;;;;26.74;21.90;100054.45;245171;1179;73756;-59
2023/11/28 08:14:20;;;;;;;;;8.00;8.00;;;;;26.91;22.04;100053.17;245337;1177;58525;-58
2023/11/28 08:19:24;;;;;;;;;8.00;8.00;;;;;27.06;21.83;100057.44;245370;1177;73835;-59
2023/11/28 08:24:27;;;;;;;;;10.50;10.50;;;;;27.18;22.22;100058.00;245357;1177;59275;-58
2023/11/28 08:29:30;;;;;;;;;8.50;8.50;;;;;27.25;22.31;100043.30;245359;1177;58468;-58
2023/11/28 08:34:33;;;;;;;;;8.50;8.25;;;;;27.32;22.72;100035.43;245444;1177;74424;-59
2023/11/28 08:39:36;;;;;;;;;8.75;8.75;;;;;27.37;22.35;100029.69;245505;1177;72763;-60
2023/11/28 08:44:40;;;;;;;;;9.00;9.00;;;;;27.39;22.70;100022.12;245359;1177;58349;-58
2023/11/28 08:49:44;;;;;;;;;10.25;10.25;;;;;27.41;22.53;100025.63;245394;1177;72937;-60
2023/11/28 08:54:47;;;;;;;;;12.50;10.50;;;;;27.42;22.73;100020.42;245250;1177;72888;-62
2023/11/28 08:59:50;;;;;;;;;10.25;10.25;;;;;27.44;22.98;100003.73;245393;1177;73553;-58
2023/11/28 09:04:54;;;;;;;;;10.50;10.50;;;;;27.23;22.26;99983.41;245193;1183;59209;-57
2023/11/28 09:09:57;;;;;;;;;9.33;8.00;;;;;26.88;21.70;99968.08;245199;1181;73666;-57
2023/11/28 09:15:00;;;;;;;;;10.00;10.00;;;;;26.60;21.30;99959.02;245343;1177;72433;-58
2023/11/28 09:20:05;;;;;;;;;12.33;11.33;;;;;26.38;20.76;99950.36;245380;1182;73499;-60
2023/11/28 09:25:09;;;;;;;;;10.25;10.25;;;;;26.25;20.71;99939.80;245342;1183;74319;-58
2023/11/28 09:30:13;;;;;;;;;11.67;11.67;;;;;26.17;20.22;99931.36;245389;1177;74289;-60
2023/11/28 09:35:17;;;;;;;;;9.25;9.25;;;;;26.10;19.93;99915.52;245342;1177;74128;-58
2023/11/28 09:40:21;;;;;;;;;9.25;9.25;;;;;26.07;19.75;99908.16;245248;1177;72399;-57
2023/11/28 09:45:25;;;;;;;;;9.25;9.25;;;;;26.06;19.31;99897.14;245367;1177;73022;-60
2023/11/28 09:50:29;;;;;;;;;9.67;9.00;;;;;26.04;19.63;99890.77;245319;1177;73173;-58
2023/11/28 09:55:33;;;;;;;;;11.25;10.00;;;;;26.04;19.52;99888.74;245239;1181;74420;-58
2023/11/28 10:00:37;;;;;;;;;11.00;11.00;;;;;26.02;20.79;99887.41;244788;1177;73062;-60
2023/11/28 10:05:41;;;;;;;;;11.25;11.25;;;;;25.93;20.59;99882.14;245016;1177;74068;-61
2023/11/28 10:10:44;;;;;;;;;11.50;11.00;;;;;25.89;20.47;99885.52;244987;1183;73228;-62
2023/11/28 10:15:54;;;;;;;;;9.00;9.00;;;;;25.91;20.18;99872.31;244998;1182;73091;-61
2023/11/28 10:20:57;;;;;;;;;9.25;9.25;;;;;25.89;20.02;99846.89;245025;1177;73440;-62
2023/11/28 10:26:00;;;;;;;;;13.00;11.00;;;;;25.82;19.91;99830.17;245020;1177;73814;-61
2023/11/28 10:31:07;;;;;;;;;10.00;10.00;;;;;25.82;19.44;99820.86;245063;1184;73524;-61
2023/11/28 10:36:11;;;;;;;;;10.00;10.00;;;;;25.78;19.35;99813.16;245418;1182;75117;-61
2023/11/28 10:41:14;;;;;;;;;11.00;11.00;;;;;25.77;19.33;99807.57;245193;1181;73551;-60
2023/11/28 10:46:17;;;;;;;;;9.25;9.25;;;;;25.82;19.27;99789.91;245153;1177;74627;-60
2023/11/28 10:51:22;;;;;;;;;10.00;10.00;;;;;25.80;18.93;99783.81;245206;1181;73089;-61
2023/11/28 10:56:27;;;;;;;;;11.75;10.75;;;;;25.81;18.75;99777.25;245006;1183;73229;-61
2023/11/28 11:01:30;;;;;;;;;11.75;9.75;;;;;25.86;18.75;99762.70;245100;1182;73978;-60
2023/11/28 11:06:33;;;;;;;;;11.75;10.75;;;;;25.85;18.79;99740.91;245159;1179;72378;-60
2023/11/28 11:11:36;;;;;;;;;10.00;9.00;;;;;25.89;18.71;99724.05;245214;1177;58925;-61
2023/11/28 11:16:51;;;;;;;;;11.00;11.00;;;;;25.87;18.47;99695.99;245262;1177;73154;-60
2023/11/28 11:22:04;;;;;;;;;11.00;10.00;;;;;25.88;18.58;99683.34;245256;1182;73558;-60
2023/11/28 11:27:09;;;;;;;;;11.50;11.50;;;;;25.93;18.45;99670.80;245186;1181;74166;-61
2023/11/28 11:32:12;;;;;;;;;11.25;9.00;;;;;25.94;18.44;99653.60;245232;1177;73909;-61
2023/11/28 11:37:17;;;;;;;;;11.00;11.00;;;;;25.93;18.43;99652.23;245237;1180;72811;-61
2023/11/28 11:42:24;;;;;;;;;9.00;9.00;;;;;25.90;18.59;99645.09;245204;1181;72717;-61
2023/11/28 11:47:29;;;;;;;;;10.50;10.00;;;;;25.87;18.42;99631.28;245207;1182;74161;-60
2023/11/28 11:52:33;;;;;;;;;10.67;10.67;;;;;25.84;18.37;99641.02;245126;1181;74475;-60
2023/11/28 11:57:39;;;;;;;;;12.50;11.00;;;;;25.83;18.54;99632.59;245224;1183;73442;-61
2023/11/28 12:02:44;;;;;;;;;10.00;10.00;;;;;25.80;18.40;99626.59;245390;1177;74130;-60
2023/11/28 12:07:47;;;;;;;;;12.25;10.50;;;;;25.76;18.62;99621.98;245217;1184;74083;-60
2023/11/28 12:12:50;;;;;;;;;11.50;10.50;;;;;25.74;18.90;99617.14;245242;1183;73074;-60
2023/11/28 12:18:08;;;;;;;;;10.00;10.00;;;;;25.75;19.52;99618.67;245076;1177;58919;-60
2023/11/28 12:23:11;;;;;;;;;9.25;9.25;;;;;25.68;19.97;99610.65;245241;1181;72332;-60
2023/11/28 12:28:14;;;;;;;;;13.00;13.00;;;;;25.57;20.26;99594.66;245467;1177;58376;-60
2023/11/28 12:33:17;;;;;;;;;10.00;10.00;;;;;25.52;20.34;99575.27;245199;1181;58350;-60
2023/11/28 12:38:21;;;;;;;;;12.25;10.25;;;;;25.45;20.16;99565.55;245284;1177;73503;-61
2023/11/28 12:43:25;;;;;;;;;10.00;10.00;;;;;25.35;20.29;99555.60;245248;1182;74160;-61
2023/11/28 12:48:28;;;;;;;;;9.50;9.50;;;;;25.39;20.71;99559.56;245475;1183;72942;-61
2023/11/28 12:53:33;;;;;;;;;10.50;10.50;;;;;25.44;20.76;99561.05;245537;1182;73211;-61
2023/11/28 12:58:36;;;;;;;;;12.50;12.00;;;;;25.44;20.49;99549.83;245566;1183;74480;-60
2023/11/28 13:03:41;;;;;;;;;12.00;11.00;;;;;25.41;20.70;99531.48;245564;1182;58243;-61
2023/11/28 13:08:44;;;;;;;;;10.00;10.00;;;;;25.38;20.61;99519.86;245501;1183;74164;-61
2023/11/28 13:13:48;;;;;;;;;12.33;12.33;;;;;25.33;20.70;99507.42;245481;1180;58744;-60
2023/11/28 13:18:52;;;;;;;;;9.00;9.00;;;;;25.29;20.68;99486.45;245321;1179;73398;-60
2023/11/28 13:23:55;;;;;;;;;10.00;10.00;;;;;25.23;20.97;99482.70;245583;1177;72860;-60
2023/11/28 13:28:59;;;;;;;;;12.50;10.50;;;;;25.18;21.33;99469.77;245662;1183;73304;-61
2023/11/28 13:34:04;;;;;;;;;15.75;12.00;;;;;25.14;21.83;99466.98;245638;1182;72969;-61
2023/11/28 13:39:07;;;;;;;;;22.75;14.50;;;;;25.10;22.28;99454.63;245596;1183;72624;-61
2023/11/28 13:44:10;;;;;;;;;13.33;13.00;;;;;25.09;22.04;99451.52;245539;1181;58305;-61
2023/11/28 13:49:13;;;;;;;;;14.00;12.75;;;;;25.05;22.02;99442.83;245349;1182;58583;-61
2023/11/28 13:54:16;;;;;;;;;14.25;11.25;;;;;25.00;21.98;99441.77;245328;1182;58363;-61
2023/11/28 13:59:19;;;;;;;;;9.33;9.33;;;;;24.94;22.16;99428.79;245400;1182;58358;-61
2023/11/28 14:04:22;;;;;;;;;14.00;11.75;;;;;24.91;23.45;99420.45;245382;1177;58321;-61
2023/11/28 14:09:26;;;;;;;;;15.75;11.50;;;;;24.86;27.90;99419.94;245372;1177;58295;-61
2023/11/28 14:14:29;;;;;;;;;11.67;11.67;;;;;24.78;32.97;99411.39;245456;1181;58305;-60
2023/11/28 14:19:53;;;;;;;;;14.67;13.00;;;;;24.65;37.56;99397.27;245377;1183;73641;-61
2023/11/28 14:24:56;;;;;;;;;13.00;13.00;;;;;24.53;36.73;99387.48;245484;1182;73534;-60
2023/11/28 14:29:59;;;;;;;;;11.00;11.00;;;;;24.45;35.63;99375.04;245684;1182;58372;-60
2023/11/28 14:35:14;;;;;;;;;13.50;12.00;;;;;24.40;33.45;99354.69;245622;1182;58309;-61
2023/11/28 14:40:17;;;;;;;;;9.75;9.50;;;;;24.41;31.38;99346.92;245611;1182;73710;-60
2023/11/28 14:45:20;;;;;;;;;12.75;10.75;;;;;24.41;30.17;99336.98;245549;1177;58347;-60
2023/11/28 14:50:25;;;;;;;;;16.33;10.33;;;;;24.40;29.60;99331.13;245429;1179;58301;-60
2023/11/28 14:55:28;;;;;;;;;9.25;8.75;;;;;24.39;29.26;99318.51;245410;1182;72684;-61
2023/11/28 15:00:33;;;;;;;;;9.67;9.67;;;;;24.37;28.94;99301.10;245704;1177;58250;-60
2023/11/28 15:05:36;;;;;;;;;11.00;11.00;;;;;24.36;28.79;99298.84;245676;1182;74038;-59
2023/11/28 15:10:40;;;;;;;;;11.00;11.00;;;;;24.34;28.65;99295.45;245642;1183;58349;-60
2023/11/28 15:15:44;;;;;;;;;10.25;10.25;;;;;24.31;28.26;99278.80;245665;1180;73642;-60
2023/11/28 15:20:48;;;;;;;;;11.25;9.00;;;;;24.29;28.19;99269.36;245586;1177;73498;-60
2023/11/28 15:25:51;;;;;;;;;8.50;8.50;;;;;24.28;27.95;99263.92;245486;1184;73655;-60
2023/11/28 15:30:54;;;;;;;;;10.00;10.00;;;;;24.25;27.75;99253.22;245653;1177;58402;-60
2023/11/28 15:35:57;;;;;;;;;12.00;11.67;;;;;24.23;27.62;99243.69;245600;1179;58345;-60
2023/11/28 15:41:00;;;;;;;;;10.00;10.00;;;;;24.24;27.44;99236.65;245671;1182;58403;-60
2023/11/28 15:46:04;;;;;;;;;9.75;9.25;;;;;24.28;27.57;99220.77;245439;1177;73473;-60
2023/11/28 15:51:07;;;;;;;;;10.67;10.67;;;;;24.30;27.53;99206.34;245310;1178;58261;-59
2023/11/28 15:56:13;;;;;;;;;11.25;11.25;;;;;24.31;27.51;99191.60;245405;1177;72782;-59
2023/11/28 16:01:17;;;;;;;;;13.00;12.75;;;;;24.33;27.56;99175.64;245381;1177;73824;-60
2023/11/28 16:06:20;;;;;;;;;8.25;8.25;;;;;24.33;27.50;99169.95;245347;1183;72794;-60
2023/11/28 16:11:24;;;;;;;;;13.50;9.75;;;;;24.33;27.60;99165.48;245412;1177;74150;-60
2023/11/28 16:16:27;;;;;;;;;9.00;9.00;;;;;24.32;27.54;99161.80;245377;1190;73510;-60
2023/11/28 16:21:30;;;;;;;;;11.25;11.00;;;;;24.31;27.61;99149.68;245394;1182;73464;-60
2023/11/28 16:26:37;;;;;;;;;10.50;9.25;;;;;24.32;27.53;99140.93;245418;1181;73594;-59
2023/11/28 16:31:40;;;;;;;;;10.50;10.25;;;;;24.32;27.54;99127.55;245376;1183;74084;-60
2023/11/28 16:36:43;;;;;;;;;10.25;10.25;;;;;24.32;27.56;99128.80;245411;1177;58340;-59
2023/11/28 16:41:46;;;;;;;;;10.25;10.25;;;;;24.33;27.63;99122.96;245488;1177;58285;-60
2023/11/28 16:46:50;;;;;;;;;9.75;8.75;;;;;24.34;27.48;99117.52;245396;1182;58141;-59
2023/11/28 16:51:53;;;;;;;;;12.50;10.50;;;;;24.34;27.66;99109.69;245411;1183;73551;-59
2023/11/28 16:56:56;;;;;;;;;11.25;9.75;;;;;24.35;27.67;99102.86;245389;1177;58208;-59
2023/11/28 17:01:59;;;;;;;;;10.00;9.25;;;;;24.35;27.60;99095.55;245391;1181;74324;-59
2023/11/28 17:07:03;;;;;;;;;11.00;9.00;;;;;24.36;27.50;99084.85;245421;1177;73380;-59
2023/11/28 17:12:06;;;;;;;;;10.00;10.00;;;;;24.36;27.64;99066.87;245391;1182;72686;-60
2023/11/28 17:17:09;;;;;;;;;9.00;9.00;;;;;24.37;27.36;99058.13;245408;1182;74231;-60
2023/11/28 17:22:12;;;;;;;;;9.00;9.00;;;;;24.37;27.38;99056.28;245420;1182;73457;-59
2023/11/28 17:27:16;;;;;;;;;11.00;11.00;;;;;24.37;27.60;99043.11;245399;1177;58278;-59
2023/11/28 17:32:19;;;;;;;;;10.00;10.00;;;;;24.36;27.60;99031.52;245393;1177;72991;-60
2023/11/28 17:37:22;;;;;;;;;11.00;8.75;;;;;24.37;27.44;99020.15;245430;1182;73542;-60
2023/11/28 17:42:25;;;;;;;;;10.00;10.00;;;;;24.36;27.45;99016.10;245600;1177;58434;-60
2023/11/28 17:47:29;;;;;;;;;10.25;9.50;;;;;24.36;27.51;99008.17;245619;1177;58379;-60
2023/11/28 17:52:32;;;;;;;;;7.25;7.25;;;;;24.35;27.49;98995.23;245622;1182;73704;-60
2023/11/28 17:57:36;;;;;;;;;10.25;9.00;;;;;24.36;27.40;98984.61;245573;1183;58395;-59
2023/11/28 18:02:39;;;;;;;;;7.00;7.00;;;;;24.35;27.66;98972.71;245591;1182;58695;-60
2023/11/28 18:07:44;;;;;;;;;8.25;8.25;;;;;24.35;27.42;98953.79;245601;1181;72284;-60
2023/11/28 18:12:48;;;;;;;;;10.00;10.00;;;;;24.34;27.48;98939.31;245602;1177;74084;-60
2023/11/28 18:17:51;;;;;;;;;10.25;9.50;;;;;24.34;27.55;98934.94;245580;1181;58348;-60
2023/11/28 18:22:55;;;;;;;;;7.00;7.00;;;;;24.34;27.52;98924.39;245564;1182;73321;-59
2023/11/28 18:28:01;;;;;;;;;9.25;9.25;;;;;24.34;27.63;98909.81;245551;1190;73539;-60
2023/11/28 18:33:04;;;;;;;;;8.25;8.25;;;;;24.34;27.52;98899.42;245553;1182;74261;-60
2023/11/28 18:38:07;;;;;;;;;8.50;8.50;;;;;24.33;27.54;98887.07;245548;1182;58294;-60
2023/11/28 18:43:13;;;;;;;;;9.00;9.00;;;;;24.34;27.63;98884.28;245498;1179;58357;-60
2023/11/28 18:48:16;;;;;;;;;10.50;10.25;;;;;24.32;27.43;98880.29;245531;1183;73868;-60
2023/11/28 18:53:19;;;;;;;;;11.33;8.67;;;;;24.32;27.48;98866.30;245406;1183;58226;-60
2023/11/28 18:58:22;;;;;;;;;8.00;8.00;;;;;24.32;27.38;98859.96;245398;1182;73327;-60
2023/11/28 19:03:25;;;;;;;;;11.00;9.00;;;;;24.32;27.43;98852.91;245412;1182;58243;-60
2023/11/28 19:08:29;;;;;;;;;9.00;9.00;;;;;24.31;27.55;98848.00;245443;1177;73327;-60
2023/11/28 19:13:34;;;;;;;;;9.75;9.75;;;;;24.31;27.57;98837.19;245450;1182;73145;-60
2023/11/28 19:18:43;;;;;;;;;9.00;9.00;;;;;24.31;27.56;98827.14;245456;1177;58389;-59
2023/11/28 19:23:51;;;;;;;;;8.00;7.33;;;;;24.30;27.61;98816.92;245449;1184;73462;-60
2023/11/28 19:28:55;;;;;;;;;8.50;8.50;;;;;24.31;27.65;98818.83;245402;1182;73965;-60
2023/11/28 19:33:58;;;;;;;;;9.75;8.00;;;;;24.31;27.57;98823.58;245444;1183;58350;-59
2023/11/28 19:39:01;;;;;;;;;12.00;10.00;;;;;24.30;27.60;98827.73;245460;1177;58159;-59
2023/11/28 19:44:04;;;;;;;;;9.25;8.00;;;;;24.30;27.56;98829.66;245456;1181;73565;-59
2023/11/28 19:49:09;;;;;;;;;8.50;8.50;;;;;24.30;27.65;98822.06;245433;1183;72878;-59
2023/11/28 19:54:13;;;;;;;;;8.00;8.00;;;;;24.30;27.55;98819.21;245430;1182;72783;-60
2023/11/28 19:59:19;;;;;;;;;9.50;9.50;;;;;24.29;27.51;98813.33;245425;1182;73852;-59
2023/11/28 20:04:25;;;;;;;;;9.00;9.00;;;;;24.29;27.45;98807.20;245454;1181;73751;-59
2023/11/28 20:09:29;;;;;;;;;9.75;9.75;;;;;24.28;27.66;98809.99;245423;1181;74306;-59
2023/11/28 20:14:32;;;;;;;;;7.50;7.50;;;;;24.28;27.56;98806.60;245444;1177;73187;-59
2023/11/28 20:19:35;;;;;;;;;8.50;8.00;;;;;24.28;27.52;98801.52;245423;1177;73925;-59
2023/11/28 20:24:38;;;;;;;;;8.33;8.00;;;;;24.28;27.61;98793.31;245393;1179;58259;-59
2023/11/28 20:29:41;;;;;;;;;8.33;8.33;;;;;24.28;27.53;98782.08;245414;1177;58196;-59
2023/11/28 20:34:45;;;;;;;;;10.67;9.00;;;;;24.27;27.62;98777.80;245418;1177;58429;-60
2023/11/28 20:39:48;;;;;;;;;9.00;8.00;;;;;24.27;27.70;98782.23;245377;1182;58341;-60
2023/11/28 20:44:51;;;;;;;;;7.25;7.25;;;;;24.27;27.62;98776.05;245389;1182;72975;-60
2023/11/28 20:49:55;;;;;;;;;10.00;10.00;;;;;24.26;27.55;98773.61;245382;1177;74405;-60
2023/11/28 20:54:58;;;;;;;;;11.00;9.00;;;;;24.27;27.56;98760.38;245413;1181;58234;-61
2023/11/28 21:00:01;;;;;;;;;8.00;8.00;;;;;24.26;27.63;98743.06;245392;1177;58321;-60
2023/11/28 21:05:05;;;;;;;;;8.25;8.25;;;;;24.26;27.69;98740.02;245374;1183;73602;-61
2023/11/28 21:10:09;;;;;;;;;7.25;7.25;;;;;24.26;27.75;98742.96;245334;1183;73697;-60
2023/11/28 21:15:12;;;;;;;;;9.00;9.00;;;;;24.25;27.66;98755.20;245389;1183;73867;-61
2023/11/28 21:20:15;;;;;;;;;8.25;8.25;;;;;24.25;27.71;98755.97;245380;1184;73840;-60
2023/11/28 21:25:18;;;;;;;;;8.75;8.75;;;;;24.25;27.71;98746.80;245368;1184;73240;-60
2023/11/28 21:30:21;;;;;;;;;10.00;10.00;;;;;24.24;27.74;98745.76;245401;1184;58276;-60
2023/11/28 21:35:24;;;;;;;;;9.00;9.00;;;;;24.24;27.57;98749.26;245380;1180;58313;-60
2023/11/28 21:40:27;;;;;;;;;7.00;7.00;;;;;24.24;27.76;98740.20;245372;1182;58349;-60
2023/11/28 21:45:30;;;;;;;;;10.33;10.33;;;;;24.24;27.90;98743.52;245411;1181;58145;-60
2023/11/28 21:50:33;;;;;;;;;8.00;8.00;;;;;24.23;27.74;98731.83;245348;1182;58336;-60
2023/11/28 21:55:38;;;;;;;;;8.50;8.50;;;;;24.23;27.73;98723.67;245389;1177;58299;-60
2023/11/28 22:00:41;;;;;;;;;10.00;9.00;;;;;24.22;27.70;98720.52;245360;1183;71942;-61
2023/11/28 22:05:45;;;;;;;;;7.00;7.00;;;;;24.22;27.74;98721.61;245381;1183;73969;-60
2023/11/28 22:10:48;;;;;;;;;8.00;8.00;;;;;24.21;27.85;98715.17;245387;1182;73000;-61
2023/11/28 22:15:51;;;;;;;;;8.50;7.75;;;;;24.21;27.72;98729.70;245389;1183;73413;-60
2023/11/28 22:20:54;;;;;;;;;9.00;9.00;;;;;24.21;27.68;98750.90;245395;1177;72673;-60
2023/11/28 22:25:58;;;;;;;;;9.50;9.50;;;;;24.21;27.69;98755.98;245408;1182;58359;-60
2023/11/28 22:31:02;;;;;;;;;7.00;7.00;;;;;24.20;27.72;98768.66;245462;1182;73318;-60
2023/11/28 22:36:06;;;;;;;;;9.50;9.50;;;;;24.20;27.81;98768.02;245444;1177;73856;-60
2023/11/28 22:41:11;;;;;;;;;8.00;8.00;;;;;24.19;27.84;98767.90;245460;1182;73342;-60
2023/11/28 22:46:15;;;;;;;;;8.00;8.00;;;;;24.18;27.61;98754.46;245433;1177;73552;-61
2023/11/28 22:51:18;;;;;;;;;8.67;8.67;;;;;24.18;27.73;98741.02;245449;1184;72619;-60
2023/11/28 22:56:21;;;;;;;;;8.33;8.33;;;;;24.18;27.68;98724.52;245469;1182;73189;-60
2023/11/28 23:01:26;;;;;;;;;9.00;9.00;;;;;24.17;27.73;98712.41;245444;1183;73340;-61
2023/11/28 23:06:29;;;;;;;;;8.50;8.50;;;;;24.17;27.59;98694.00;245457;1182;73180;-61
2023/11/28 23:11:33;;;;;;;;;8.67;8.67;;;;;24.17;27.71;98691.36;245507;1182;72530;-60